Time;durP1;ratioP1;P1;durP2;ratioP2;P2;SDS_P1;SDS_P2;PMS_P1;PMS_P2;Temp;Humidity;BMP_temperature;BMP_pressure;BME280_temperature;BME280_humidity;BME280_pressure;Samples;Min_cycle;Max_cycle;Signal;HPM_P1;HPM_P2
2023/09/12 00:00:56;;;;;;;11.00;6.38;;;;;;;16.41;68.28;95017.22;4784508;30;20205;-69
2023/09/12 00:03:23;;;;;;;19.25;10.30;;;;;;;16.38;68.09;95020.38;4796124;29;20192;-68
2023/09/12 00:05:56;;;;;;;18.23;10.77;;;;;;;16.34;68.28;95019.25;4793163;29;20193;-69
2023/09/12 00:08:23;;;;;;;8.02;4.45;;;;;;;16.11;68.72;95020.19;4798641;29;20637;-69
2023/09/12 00:11:00;;;;;;;27.50;12.73;;;;;;;16.04;69.56;95019.56;4805699;29;20462;-69
2023/09/12 00:13:25;;;;;;;16.42;6.75;;;;;;;16.09;69.35;95016.97;4806201;29;20433;-68
2023/09/12 00:15:50;;;;;;;13.88;6.78;;;;;;;16.07;69.43;95019.09;4806230;29;20191;-68
2023/09/12 00:18:16;;;;;;;16.25;7.85;;;;;;;16.09;69.20;95024.94;4805913;29;20269;-68
2023/09/12 00:20:41;;;;;;;11.15;6.40;;;;;;;16.06;69.27;95022.78;4788007;29;20185;-69
2023/09/12 00:23:06;;;;;;;10.18;5.43;;;;;;;16.05;69.25;95023.03;4787953;29;20267;-69
2023/09/12 00:25:32;;;;;;;7.72;4.13;;;;;;;15.94;69.44;95029.19;4802414;29;20217;-69
2023/09/12 00:27:57;;;;;;;7.60;4.60;;;;;;;15.88;69.66;95025.66;4805793;29;20220;-68
2023/09/12 00:30:23;;;;;;;7.57;3.45;;;;;;;15.84;69.94;95024.50;4806223;29;20660;-69
2023/09/12 00:32:48;;;;;;;7.03;4.35;;;;;;;15.89;70.07;95029.94;4805627;29;20297;-69
2023/09/12 00:35:13;;;;;;;5.22;3.50;;;;;;;15.84;69.97;95037.78;4805706;29;20188;-69
2023/09/12 00:37:39;;;;;;;5.60;3.50;;;;;;;15.79;70.26;95032.41;4805678;29;20184;-68
2023/09/12 00:40:05;;;;;;;6.07;3.47;;;;;;;15.76;70.52;95033.66;4800594;29;20223;-68
2023/09/12 00:42:30;;;;;;;9.95;3.50;;;;;;;15.72;70.43;95034.41;4805693;29;20188;-68
2023/09/12 00:44:56;;;;;;;10.32;3.17;;;;;;;15.71;70.45;95035.44;4805386;29;20179;-68
2023/09/12 00:47:23;;;;;;;7.55;3.42;;;;;;;15.73;70.46;95038.66;4805526;29;20298;-69
2023/09/12 00:49:50;;;;;;;4.00;3.38;;;;;;;15.72;70.45;95037.84;4805398;29;20188;-69
2023/09/12 00:52:18;;;;;;;13.95;4.10;;;;;;;15.71;70.40;95030.94;4805297;29;20213;-69
2023/09/12 00:54:43;;;;;;;7.63;3.65;;;;;;;15.72;70.56;95029.09;4805203;29;20268;-68
2023/09/12 00:57:09;;;;;;;13.82;3.95;;;;;;;15.69;70.79;95040.97;4805409;29;20337;-68
2023/09/12 00:59:35;;;;;;;11.57;3.83;;;;;;;15.64;71.06;95034.78;4804232;29;20447;-68
2023/09/12 01:02:01;;;;;;;6.28;3.28;;;;;;;15.53;71.02;95039.06;4785519;29;20188;-68
2023/09/12 01:04:27;;;;;;;9.25;3.70;;;;;;;15.55;71.13;95052.13;4787234;29;20189;-69
2023/09/12 01:06:53;;;;;;;6.05;3.25;;;;;;;15.52;71.14;95041.94;4787085;29;20189;-69
2023/09/12 01:09:18;;;;;;;7.63;3.67;;;;;;;15.48;71.50;95041.59;4795299;29;20210;-69
2023/09/12 01:11:44;;;;;;;11.38;3.30;;;;;;;15.50;71.39;95050.13;4805261;29;20686;-68
2023/09/12 01:14:10;;;;;;;5.70;3.60;;;;;;;15.47;71.48;95050.63;4805219;29;20184;-69
2023/09/12 01:16:35;;;;;;;8.20;3.35;;;;;;;15.44;71.15;95051.91;4805009;29;20219;-69
2023/09/12 01:19:01;;;;;;;6.40;3.78;;;;;;;15.39;71.29;95049.13;4786710;29;20180;-69
2023/09/12 01:21:39;;;;;;;11.35;4.10;;;;;;;15.35;71.84;95049.84;4791358;29;20186;-69
2023/09/12 01:24:22;;;;;;;11.40;3.70;;;;;;;15.33;71.86;95049.25;4805034;29;20176;-68
2023/09/12 01:27:19;;;;;;;9.07;3.67;;;;;;;15.30;71.62;95053.22;4804788;29;20195;-69
2023/09/12 01:29:46;;;;;;;7.50;3.60;;;;;;;15.32;71.47;95063.56;4803219;29;20636;-69
2023/09/12 01:32:13;;;;;;;15.77;4.03;;;;;;;15.26;71.74;95051.25;4786705;29;20245;-69
2023/09/12 01:34:39;;;;;;;12.43;3.72;;;;;;;15.22;72.13;95058.84;4784609;30;20258;-69
2023/09/12 01:37:04;;;;;;;6.07;3.67;;;;;;;15.17;72.14;95057.97;4786391;29;20669;-69
2023/09/12 01:39:30;;;;;;;7.53;3.38;;;;;;;15.16;72.09;95054.50;4786696;30;20188;-69
2023/09/12 01:41:59;;;;;;;4.80;3.30;;;;;;;14.95;73.11;95047.97;4786649;29;20441;-69
2023/09/12 01:44:28;;;;;;;5.90;3.20;;;;;;;14.95;73.17;95047.97;4784660;29;20181;-69
2023/09/12 01:46:57;;;;;;;8.35;4.60;;;;;;;14.85;73.10;95036.34;4791468;29;20624;-69
2023/09/12 01:49:24;;;;;;;5.38;3.28;;;;;;;14.90;73.03;95042.56;4804476;29;20204;-69
2023/09/12 01:51:51;;;;;;;6.18;3.30;;;;;;;14.99;73.02;95059.72;4804218;29;20255;-69
2023/09/12 01:54:17;;;;;;;10.35;4.05;;;;;;;14.95;73.08;95055.94;4804386;29;20252;-69
2023/09/12 01:56:43;;;;;;;8.55;3.28;;;;;;;14.75;73.29;95025.53;4804305;29;20672;-69
2023/09/12 01:59:08;;;;;;;7.40;2.83;;;;;;;14.90;73.71;95055.81;4804313;29;20176;-69
2023/09/12 02:01:34;;;;;;;5.68;3.60;;;;;;;14.88;73.98;95057.06;4804277;29;20196;-69
2023/09/12 02:03:59;;;;;;;5.50;3.20;;;;;;;14.89;74.09;95064.00;4804314;29;20188;-69
2023/09/12 02:06:24;;;;;;;4.00;2.75;;;;;;;14.90;73.69;95068.25;4804164;29;20188;-69
2023/09/12 02:08:50;;;;;;;6.78;2.97;;;;;;;14.88;74.03;95063.19;4804034;29;20207;-69
2023/09/12 02:11:15;;;;;;;7.37;3.43;;;;;;;14.90;73.90;95063.75;4804175;29;20215;-69
2023/09/12 02:13:41;;;;;;;9.35;3.53;;;;;;;14.88;73.52;95057.06;4804017;29;20180;-69
2023/09/12 02:16:06;;;;;;;20.88;3.72;;;;;;;14.85;73.96;95061.00;4804000;29;20214;-69
2023/09/12 02:18:31;;;;;;;5.93;3.30;;;;;;;14.80;74.22;95062.72;4804069;29;20217;-69
2023/09/12 02:21:00;;;;;;;5.85;3.20;;;;;;;14.76;74.37;95065.06;4804141;29;20199;-69
2023/09/12 02:23:25;;;;;;;6.97;3.20;;;;;;;14.62;74.50;95048.56;4803776;29;20188;-69
2023/09/12 02:25:51;;;;;;;8.68;4.20;;;;;;;14.56;74.49;95035.44;4803634;29;20203;-69
2023/09/12 02:28:16;;;;;;;12.07;3.63;;;;;;;14.70;74.65;95065.97;4787654;29;20680;-69
2023/09/12 02:30:41;;;;;;;12.82;3.60;;;;;;;14.68;74.67;95066.22;4803099;29;20184;-69
2023/09/12 02:33:07;;;;;;;8.95;3.25;;;;;;;14.64;74.60;95057.09;4803418;29;20657;-69
2023/09/12 02:35:32;;;;;;;14.27;4.00;;;;;;;14.59;75.07;95064.13;4803793;29;20188;-69
2023/09/12 02:37:58;;;;;;;8.67;4.50;;;;;;;14.57;75.22;95064.34;4803503;29;20615;-69
2023/09/12 02:40:23;;;;;;;9.67;3.07;;;;;;;14.57;75.19;95064.34;4803613;29;20182;-69
2023/09/12 02:42:49;;;;;;;8.40;3.13;;;;;;;14.57;75.12;95068.84;4803570;29;20192;-69
2023/09/12 02:45:14;;;;;;;4.53;3.27;;;;;;;14.57;75.06;95060.91;4803349;29;20560;-69
2023/09/12 02:47:40;;;;;;;11.30;3.38;;;;;;;14.55;75.35;95066.41;4803416;29;20257;-69
2023/09/12 02:50:06;;;;;;;11.67;3.30;;;;;;;14.54;75.23;95059.50;4791434;29;20681;-69
2023/09/12 02:52:31;;;;;;;8.38;3.22;;;;;;;14.39;75.22;95042.47;4785729;29;20188;-69
2023/09/12 02:54:56;;;;;;;4.47;3.07;;;;;;;14.53;75.37;95071.13;4769492;30;20196;-69
2023/09/12 02:57:22;;;;;;;8.68;3.67;;;;;;;14.50;75.43;95062.84;4785489;29;20277;-69
2023/09/12 02:59:47;;;;;;;6.13;3.60;;;;;;;14.47;75.49;95058.81;4769248;30;20217;-69
2023/09/12 03:02:13;;;;;;;11.10;3.30;;;;;;;14.44;75.44;95067.25;4785369;30;20192;-69
2023/09/12 03:04:38;;;;;;;6.17;3.60;;;;;;;14.36;75.64;95068.31;4785403;30;20216;-69
2023/09/12 03:07:03;;;;;;;8.37;3.57;;;;;;;14.30;75.87;95063.94;4785004;30;20253;-69
2023/09/12 03:09:29;;;;;;;6.77;4.40;;;;;;;14.28;76.10;95065.22;4792660;29;20184;-69
2023/09/12 03:11:54;;;;;;;5.80;3.60;;;;;;;14.23;76.03;95068.56;4802797;29;20249;-69
2023/09/12 03:14:20;;;;;;;5.13;3.40;;;;;;;14.21;76.62;95065.31;4779349;29;20235;-69
2023/09/12 03:16:45;;;;;;;11.18;3.53;;;;;;;14.19;76.55;95063.94;4785031;29;20490;-69
2023/09/12 03:19:10;;;;;;;6.80;3.87;;;;;;;14.19;76.64;95071.88;4784921;29;20183;-69
2023/09/12 03:21:36;;;;;;;8.87;3.67;;;;;;;14.18;76.57;95068.41;4790775;29;20184;-69
2023/09/12 03:24:01;;;;;;;8.73;3.67;;;;;;;14.16;76.78;95073.16;4784619;29;20180;-69
2023/09/12 03:26:27;;;;;;;6.55;3.78;;;;;;;14.15;76.62;95068.88;4786137;29;20184;-69
2023/09/12 03:28:52;;;;;;;7.43;3.30;;;;;;;14.16;76.70;95070.50;4803180;29;20207;-69
2023/09/12 03:31:18;;;;;;;10.60;4.13;;;;;;;14.03;76.81;95057.44;4803034;29;20184;-69
2023/09/12 03:33:49;;;;;;;5.70;4.00;;;;;;;14.13;76.73;95073.59;4802753;29;20276;-69
2023/09/12 03:36:15;;;;;;;10.23;3.50;;;;;;;14.11;76.95;95072.19;4803050;29;20192;-69
2023/09/12 03:38:41;;;;;;;8.03;3.27;;;;;;;14.10;76.96;95079.34;4802878;29;20243;-69
2023/09/12 03:41:06;;;;;;;5.23;3.90;;;;;;;14.02;77.14;95074.38;4802816;29;21137;-69
2023/09/12 03:43:33;;;;;;;6.47;3.83;;;;;;;13.95;77.31;95074.47;4805780;29;20188;-69
2023/09/12 03:45:58;;;;;;;6.67;3.53;;;;;;;14.00;77.50;95078.28;4806543;29;20191;-69
2023/09/12 03:48:24;;;;;;;6.87;4.40;;;;;;;13.97;77.53;95075.06;4806239;29;20589;-69
2023/09/12 03:50:49;;;;;;;10.83;4.77;;;;;;;13.98;77.57;95079.31;4806285;29;20236;-69
2023/09/12 03:53:15;;;;;;;9.67;4.30;;;;;;;14.02;77.72;95081.50;4806084;29;20225;-69
2023/09/12 03:55:41;;;;;;;7.50;3.90;;;;;;;13.97;77.37;95087.47;4806519;29;20675;-69
2023/09/12 03:58:07;;;;;;;11.40;3.87;;;;;;;13.94;77.15;95079.97;4806505;29;20235;-69
2023/09/12 04:00:32;;;;;;;7.50;3.63;;;;;;;13.90;77.79;95081.47;4806342;29;20273;-69
2023/09/12 04:02:58;;;;;;;7.40;3.73;;;;;;;13.85;77.48;95076.84;4806371;29;20543;-69
2023/09/12 04:05:25;;;;;;;7.93;3.57;;;;;;;13.82;78.06;95079.97;4806288;29;20210;-69
2023/09/12 04:07:50;;;;;;;11.20;4.07;;;;;;;13.83;77.96;95086.06;4805649;29;20234;-69
2023/09/12 04:10:15;;;;;;;6.93;3.77;;;;;;;13.84;77.78;95082.38;4805931;29;20623;-69
2023/09/12 04:12:41;;;;;;;8.87;3.87;;;;;;;13.82;77.91;95074.69;4806086;29;20192;-69
2023/09/12 04:15:06;;;;;;;8.30;3.80;;;;;;;13.82;77.68;95082.63;4806084;29;20188;-69
2023/09/12 04:17:32;;;;;;;12.33;4.53;;;;;;;13.81;77.69;95082.84;4806322;29;20282;-69
2023/09/12 04:19:57;;;;;;;9.17;4.43;;;;;;;13.61;77.73;95064.56;4806053;29;20191;-69
2023/09/12 04:22:22;;;;;;;7.77;4.93;;;;;;;13.81;77.82;95093.41;4805628;29;20248;-69
2023/09/12 04:24:48;;;;;;;9.37;4.47;;;;;;;13.83;78.08;95081.59;4805810;29;20192;-69
2023/09/12 04:27:13;;;;;;;18.20;5.30;;;;;;;13.89;77.76;95088.63;4805552;29;20294;-69
2023/09/12 04:29:39;;;;;;;15.00;4.67;;;;;;;13.89;78.02;95088.63;4805250;29;20677;-69
2023/09/12 04:32:05;;;;;;;9.07;4.97;;;;;;;13.83;77.70;95076.28;4802226;29;20360;-69
2023/09/12 04:34:31;;;;;;;16.23;5.23;;;;;;;13.81;77.67;95073.06;4805561;29;20188;-69
2023/09/12 04:36:56;;;;;;;11.73;5.77;;;;;;;13.96;77.68;95091.16;4805734;29;20611;-69
2023/09/12 04:39:22;;;;;;;18.80;5.83;;;;;;;13.98;77.68;95095.22;4805700;29;20188;-69
2023/09/12 04:41:47;;;;;;;16.63;6.50;;;;;;;14.07;77.36;95098.34;4805690;29;20192;-69
2023/09/12 04:44:13;;;;;;;16.70;5.43;;;;;;;14.18;77.12;95094.88;4805642;29;20214;-69
2023/09/12 04:46:38;;;;;;;23.97;6.70;;;;;;;14.26;77.32;95104.38;4805466;29;20188;-69
2023/09/12 04:49:04;;;;;;;16.70;6.53;;;;;;;14.36;76.78;95101.94;4805316;29;20219;-69
2023/09/12 04:51:29;;;;;;;11.77;6.03;;;;;;;14.47;76.47;95103.84;4805376;29;20226;-69
2023/09/12 04:53:54;;;;;;;17.90;6.03;;;;;;;14.56;76.16;95099.81;4803071;29;20219;-69
2023/09/12 04:56:20;;;;;;;9.90;5.47;;;;;;;14.68;76.21;95100.66;4804805;29;20207;-69
2023/09/12 04:58:46;;;;;;;13.77;4.88;;;;;;;14.80;75.94;95102.47;4804802;29;20271;-69
2023/09/12 05:01:11;;;;;;;16.63;7.37;;;;;;;14.90;75.23;95108.81;4804884;29;20708;-69
2023/09/12 05:03:37;;;;;;;22.48;6.38;;;;;;;15.06;74.83;95104.66;4804835;29;20184;-69
2023/09/12 05:06:03;;;;;;;8.02;4.75;;;;;;;15.26;74.00;95102.44;4805148;29;20688;-69
2023/09/12 05:08:29;;;;;;;20.73;5.15;;;;;;;15.55;73.98;95107.84;4804735;29;20202;-69
2023/09/12 05:10:54;;;;;;;14.52;4.82;;;;;;;15.69;72.36;95080.78;4804924;29;20176;-69
2023/09/12 05:13:20;;;;;;;16.15;5.50;;;;;;;16.23;71.39;95107.78;4804716;29;20187;-69
2023/09/12 05:15:46;;;;;;;14.77;4.95;;;;;;;16.59;69.68;95109.19;4784600;30;20216;-69
2023/09/12 05:18:12;;;;;;;12.50;4.85;;;;;;;16.90;68.56;95103.31;4787053;30;20191;-69
2023/09/12 05:20:37;;;;;;;12.80;4.68;;;;;;;17.26;67.04;95117.13;4786910;30;20177;-69
2023/09/12 05:23:03;;;;;;;19.20;4.90;;;;;;;17.52;66.08;95110.28;4786926;29;20184;-69
2023/09/12 05:25:28;;;;;;;11.32;4.82;;;;;;;17.82;65.57;95115.97;4787225;30;20211;-69
2023/09/12 05:27:54;;;;;;;18.05;5.53;;;;;;;18.10;64.54;95114.97;4786975;29;20208;-69
2023/09/12 05:30:19;;;;;;;13.00;4.50;;;;;;;18.25;63.74;95082.34;4787000;29;20968;-69
2023/09/12 05:32:45;;;;;;;12.27;4.47;;;;;;;18.60;62.48;95117.31;4786721;29;20284;-69
2023/09/12 05:35:10;;;;;;;10.90;4.15;;;;;;;18.83;60.76;95117.00;4786782;29;20290;-69
2023/09/12 05:37:36;;;;;;;10.23;3.83;;;;;;;19.08;60.61;95115.56;4786746;30;20177;-69
2023/09/12 05:40:02;;;;;;;11.15;4.40;;;;;;;19.25;59.25;95118.06;4786804;29;20181;-69
2023/09/12 05:42:28;;;;;;;6.93;3.47;;;;;;;19.48;58.36;95117.66;4786645;29;20188;-69
2023/09/12 05:44:54;;;;;;;9.93;3.85;;;;;;;19.70;58.01;95123.66;4786692;29;20180;-69
2023/09/12 05:47:20;;;;;;;7.75;3.42;;;;;;;19.90;56.46;95126.41;4770345;30;20220;-69
2023/09/12 05:49:45;;;;;;;6.38;3.35;;;;;;;20.05;56.31;95116.84;4786568;29;20263;-69
2023/09/12 05:52:11;;;;;;;7.47;3.80;;;;;;;20.17;55.68;95110.16;4786368;29;20687;-69
2023/09/12 05:54:37;;;;;;;7.13;3.72;;;;;;;20.45;55.10;95124.16;4786479;29;20271;-69
2023/09/12 05:57:03;;;;;;;5.65;3.00;;;;;;;20.58;54.11;95121.75;4786531;29;20191;-69
2023/09/12 05:59:28;;;;;;;6.88;3.25;;;;;;;20.73;53.75;95117.50;4786309;29;20260;-69
2023/09/12 06:01:53;;;;;;;4.78;3.78;;;;;;;20.89;53.88;95119.09;4770231;30;20191;-69
2023/09/12 06:04:19;;;;;;;14.57;5.28;;;;;;;20.95;53.98;95108.13;4786218;29;20196;-69
2023/09/12 06:06:46;;;;;;;6.65;3.75;;;;;;;21.14;52.73;95108.38;4786403;29;20241;-69
2023/09/12 06:09:11;;;;;;;5.60;3.75;;;;;;;21.26;52.22;95095.53;4787902;29;20204;-69
2023/09/12 06:11:37;;;;;;;8.35;4.38;;;;;;;21.51;51.11;95107.25;4804314;29;20187;-69
2023/09/12 06:14:02;;;;;;;7.00;3.25;;;;;;;21.83;50.97;95123.75;4804153;29;20263;-69
2023/09/12 06:16:28;;;;;;;5.40;3.78;;;;;;;21.91;49.76;95122.38;4785449;29;20183;-69
2023/09/12 06:18:53;;;;;;;9.15;4.68;;;;;;;22.07;49.66;95129.28;4786331;29;20191;-68
2023/09/12 06:21:21;;;;;;;7.75;3.55;;;;;;;22.24;49.94;95128.94;4786071;29;20267;-69
2023/09/12 06:23:48;;;;;;;7.95;4.13;;;;;;;22.45;50.22;95127.75;4769807;29;20195;-68
2023/09/12 06:26:13;;;;;;;11.10;4.75;;;;;;;22.81;49.50;95134.50;4785940;29;20564;-68
2023/09/12 06:28:40;;;;;;;6.60;4.03;;;;;;;23.12;47.78;95139.59;4785929;29;20212;-69
2023/09/12 06:31:09;;;;;;;9.85;3.72;;;;;;;23.26;46.34;95140.56;4791201;29;20557;-69
2023/09/12 06:33:34;;;;;;;9.48;4.65;;;;;;;23.36;46.75;95145.81;4803818;29;20220;-70
2023/09/12 06:36:00;;;;;;;7.93;3.50;;;;;;;23.40;45.24;95143.38;4803416;29;20191;-70
2023/09/12 06:38:26;;;;;;;7.07;3.10;;;;;;;23.33;46.46;95132.97;4803892;29;20258;-70
2023/09/12 06:40:51;;;;;;;7.97;3.88;;;;;;;23.75;45.11;95145.72;4803537;29;20191;-70
2023/09/12 06:43:17;;;;;;;10.25;3.22;;;;;;;23.83;44.70;95142.41;4803664;29;20213;-70
2023/09/12 06:45:43;;;;;;;7.78;3.88;;;;;;;23.95;45.03;95139.31;4803583;29;20190;-69
2023/09/12 06:48:09;;;;;;;7.75;3.67;;;;;;;24.27;43.98;95142.16;4803646;29;20204;-70
2023/09/12 06:50:35;;;;;;;10.55;4.40;;;;;;;24.49;43.37;95146.16;4803503;29;20638;-69
2023/09/12 06:53:00;;;;;;;12.77;4.18;;;;;;;24.76;42.80;95147.09;4803385;29;20675;-70
2023/09/12 06:55:27;;;;;;;10.45;4.88;;;;;;;24.97;42.38;95144.94;4803200;29;20182;-70
2023/09/12 06:57:53;;;;;;;7.65;3.50;;;;;;;25.15;40.23;95156.78;4776921;30;20563;-69
2023/09/12 07:00:18;;;;;;;7.35;3.58;;;;;;;24.95;40.47;95149.81;4785351;29;20188;-71
2023/09/12 07:02:44;;;;;;;9.82;3.80;;;;;;;25.11;40.30;95148.47;4788094;29;20266;-73
2023/09/12 07:05:09;;;;;;;7.57;4.10;;;;;;;25.28;40.56;95144.41;4785322;29;20181;-70
2023/09/12 07:07:34;;;;;;;8.60;3.70;;;;;;;25.51;40.26;95151.56;4785124;29;20204;-70
2023/09/12 07:10:00;;;;;;;7.22;3.88;;;;;;;25.63;39.52;95157.28;4784899;29;20188;-69
2023/09/12 07:12:28;;;;;;;11.32;5.07;;;;;;;25.92;39.09;95154.31;4784844;29;20180;-70
2023/09/12 07:14:55;;;;;;;7.95;3.95;;;;;;;25.62;37.84;95092.84;4784863;29;20271;-70
2023/09/12 07:17:21;;;;;;;11.80;5.90;;;;;;;26.06;37.53;95154.31;4782546;29;20184;-69
2023/09/12 07:19:46;;;;;;;26.05;15.15;;;;;;;26.11;38.50;95146.94;4784994;29;20187;-69
2023/09/12 07:22:12;;;;;;;8.35;3.70;;;;;;;26.13;37.60;95152.00;4785257;29;20641;-70
2023/09/12 07:24:37;;;;;;;14.43;4.78;;;;;;;25.96;38.30;95155.31;4785241;29;20176;-69
2023/09/12 07:27:03;;;;;;;16.55;3.97;;;;;;;26.21;37.37;95156.69;4785300;29;20190;-69
2023/09/12 07:29:28;;;;;;;8.50;4.03;;;;;;;26.40;36.77;95159.28;4785059;29;20184;-69
2023/09/12 07:31:54;;;;;;;7.20;4.07;;;;;;;26.07;37.22;95156.72;4784884;29;20385;-70
2023/09/12 07:34:20;;;;;;;10.48;4.55;;;;;;;26.38;36.95;95154.19;4785091;29;20669;-69
2023/09/12 07:36:46;;;;;;;11.80;4.55;;;;;;;26.49;36.22;95155.59;4784878;30;20195;-69
2023/09/12 07:39:11;;;;;;;13.73;3.90;;;;;;;26.63;36.06;95148.25;4784867;29;20176;-70
2023/09/12 07:41:37;;;;;;;12.43;6.03;;;;;;;26.67;36.02;95157.34;4784755;29;20191;-70
2023/09/12 07:44:04;;;;;;;9.18;3.88;;;;;;;26.51;36.04;95153.38;4784763;29;20581;-70
2023/09/12 07:46:32;;;;;;;10.63;4.35;;;;;;;26.46;37.28;95147.31;4785057;29;20206;-70
2023/09/12 07:48:58;;;;;;;12.93;4.40;;;;;;;26.61;36.15;95142.34;4784148;29;20219;-69
2023/09/12 07:51:24;;;;;;;10.65;4.43;;;;;;;26.67;35.42;95143.03;4793436;29;20188;-70
2023/09/12 07:53:49;;;;;;;7.10;3.65;;;;;;;26.39;36.24;95125.28;4790761;29;20195;-70
2023/09/12 07:56:15;;;;;;;9.45;3.88;;;;;;;26.58;36.60;95134.84;4790839;29;20188;-69
2023/09/12 07:58:40;;;;;;;6.70;3.95;;;;;;;27.02;35.73;95146.84;4792197;29;20653;-69
2023/09/12 08:01:09;;;;;;;9.63;4.40;;;;;;;27.48;35.21;95143.00;4792542;29;20180;-69
2023/09/12 08:03:36;;;;;;;5.40;3.67;;;;;;;27.98;33.55;95136.25;4789520;29;20185;-69
2023/09/12 08:06:02;;;;;;;7.97;4.15;;;;;;;28.03;32.67;95130.66;4791832;29;20219;-69
2023/09/12 08:08:28;;;;;;;15.32;3.45;;;;;;;28.37;32.83;95137.31;4774249;29;20219;-70
2023/09/12 08:10:54;;;;;;;6.85;3.30;;;;;;;28.74;31.68;95142.13;4789550;29;20185;-69
2023/09/12 08:13:19;;;;;;;7.07;3.55;;;;;;;28.93;31.78;95149.19;4786417;29;20267;-69
2023/09/12 08:15:45;;;;;;;13.35;4.13;;;;;;;28.31;31.88;95144.00;4789431;29;20187;-69
2023/09/12 08:18:10;;;;;;;9.75;4.30;;;;;;;28.30;32.34;95128.84;4784211;29;20184;-70
2023/09/12 08:20:35;;;;;;;11.30;3.72;;;;;;;28.72;32.38;95140.84;4783233;29;20661;-69
2023/09/12 08:23:01;;;;;;;9.98;3.47;;;;;;;28.98;31.53;95149.00;4782040;29;20256;-69
2023/09/12 08:25:27;;;;;;;6.43;3.83;;;;;;;29.23;30.69;95143.56;4782248;29;20180;-69
2023/09/12 08:27:52;;;;;;;7.90;3.65;;;;;;;29.02;30.15;95147.28;4782208;29;20287;-69
2023/09/12 08:30:17;;;;;;;9.32;3.20;;;;;;;28.66;30.49;95142.94;4784922;29;20235;-70
2023/09/12 08:32:46;;;;;;;20.05;3.97;;;;;;;28.35;30.87;95139.56;4786211;29;20289;-70
2023/09/12 08:35:12;;;;;;;7.78;2.65;;;;;;;28.38;30.83;95136.19;4786127;29;20223;-69
2023/09/12 08:37:39;;;;;;;7.50;3.70;;;;;;;28.70;30.74;95132.25;4786537;29;20725;-69
2023/09/12 08:40:07;;;;;;;7.35;3.15;;;;;;;29.01;30.65;95138.34;4786901;29;20193;-67
2023/09/12 08:42:42;;;;;;;6.70;3.38;;;;;;;29.35;29.46;95137.50;4785389;29;20381;-69
2023/09/12 08:45:13;;;;;;;8.20;2.97;;;;;;;29.35;30.17;95120.41;4786890;29;20220;-70
2023/09/12 08:47:43;;;;;;;5.65;3.22;;;;;;;29.59;30.15;95126.91;4804786;29;20592;-70
2023/09/12 08:50:13;;;;;;;10.93;3.08;;;;;;;29.88;29.97;95128.91;4804760;29;20184;-69
2023/09/12 08:52:40;;;;;;;17.08;3.58;;;;;;;29.76;28.20;95126.06;4804841;29;20660;-69
2023/09/12 08:55:05;;;;;;;9.07;3.70;;;;;;;29.20;30.17;95119.81;4804473;29;20590;-69
2023/09/12 08:57:33;;;;;;;9.35;3.28;;;;;;;28.64;30.20;95126.19;4796461;29;20191;-69
2023/09/12 09:00:05;;;;;;;7.57;2.45;;;;;;;28.59;30.78;95104.69;4789353;29;20188;-70
2023/09/12 09:02:32;;;;;;;7.90;3.25;;;;;;;28.44;30.73;95121.41;4789096;29;20191;-70
2023/09/12 09:04:58;;;;;;;17.40;3.72;;;;;;;28.46;30.97;95125.38;4793238;29;20275;-69
2023/09/12 09:07:25;;;;;;;9.07;2.85;;;;;;;28.26;30.34;95119.78;4792702;29;20212;-69
2023/09/12 09:09:53;;;;;;;5.47;2.78;;;;;;;28.11;32.68;95110.13;4786461;29;20192;-69
2023/09/12 09:12:19;;;;;;;7.35;2.58;;;;;;;28.47;32.33;95116.13;4787110;29;20195;-69
2023/09/12 09:14:44;;;;;;;7.80;2.63;;;;;;;28.56;30.05;95116.13;4787146;29;20189;-69
2023/09/12 09:17:12;;;;;;;6.45;2.22;;;;;;;28.75;30.76;95107.69;4786824;29;20199;-69
2023/09/12 09:19:42;;;;;;;5.72;2.20;;;;;;;28.45;29.85;95115.66;4787011;30;20206;-69
2023/09/12 09:22:08;;;;;;;10.73;2.65;;;;;;;28.50;30.58;95107.38;4786997;30;20189;-69
2023/09/12 09:24:33;;;;;;;8.63;2.80;;;;;;;28.18;29.99;95107.03;4787062;29;20180;-69
2023/09/12 09:27:00;;;;;;;6.18;2.95;;;;;;;28.07;31.36;95107.28;4786859;29;20200;-69
2023/09/12 09:29:26;;;;;;;5.70;2.72;;;;;;;27.98;31.59;95101.03;4786829;29;20205;-69
2023/09/12 09:31:51;;;;;;;8.30;2.20;;;;;;;27.43;32.12;95092.50;4786419;29;20188;-70
2023/09/12 09:34:19;;;;;;;8.63;2.42;;;;;;;27.08;32.59;95088.81;4787182;30;20197;-69
2023/09/12 09:36:48;;;;;;;7.13;2.42;;;;;;;27.17;33.85;95091.59;4786892;29;20192;-69
2023/09/12 09:39:14;;;;;;;7.93;3.03;;;;;;;27.45;33.34;95084.91;4785721;29;20184;-69
2023/09/12 09:41:40;;;;;;;9.25;2.80;;;;;;;27.04;32.44;95077.06;4785824;29;20264;-69
2023/09/12 09:44:08;;;;;;;6.85;3.30;;;;;;;27.12;33.38;95084.41;4786060;29;20192;-69
2023/09/12 09:46:34;;;;;;;6.50;2.67;;;;;;;27.28;33.46;95090.22;4783956;29;20333;-69
2023/09/12 09:49:00;;;;;;;7.63;2.90;;;;;;;27.50;32.46;95083.97;4785731;29;20212;-69
2023/09/12 09:51:26;;;;;;;5.97;2.30;;;;;;;27.66;32.39;95085.97;4786063;29;20192;-69
2023/09/12 09:53:54;;;;;;;10.55;3.28;;;;;;;27.74;33.75;95085.22;4785610;29;20245;-69
2023/09/12 09:56:20;;;;;;;9.02;2.70;;;;;;;27.89;33.66;95072.34;4785838;29;20200;-69
2023/09/12 09:58:50;;;;;;;8.27;2.40;;;;;;;28.11;32.74;95074.94;4785653;29;20172;-69
2023/09/12 10:01:36;;;;;;;5.82;2.70;;;;;;;28.09;30.85;95074.47;4785711;29;20192;-69
2023/09/12 10:04:03;;;;;;;12.90;2.78;;;;;;;27.73;31.88;95072.78;4784780;29;20200;-69
2023/09/12 10:06:31;;;;;;;5.15;2.60;;;;;;;27.70;32.31;95067.19;4785684;29;20189;-69
2023/09/12 10:08:58;;;;;;;7.43;3.05;;;;;;;27.78;32.99;95071.84;4785679;29;20204;-69
2023/09/12 10:11:27;;;;;;;5.15;2.65;;;;;;;27.58;32.69;95072.44;4783615;29;20220;-69
2023/09/12 10:13:55;;;;;;;4.97;2.63;;;;;;;27.32;32.05;95062.25;4785533;29;20193;-69
2023/09/12 10:16:27;;;;;;;5.95;2.88;;;;;;;27.23;32.91;95057.91;4785407;29;20184;-69
2023/09/12 10:19:04;;;;;;;6.82;2.72;;;;;;;27.33;34.43;95046.84;4785243;29;20180;-69
2023/09/12 10:21:33;;;;;;;5.15;2.28;;;;;;;27.53;32.87;95056.28;4784044;29;20242;-69
2023/09/12 10:24:00;;;;;;;8.65;2.75;;;;;;;27.50;31.99;95049.63;4785192;29;20215;-69
2023/09/12 10:26:26;;;;;;;8.90;2.40;;;;;;;27.28;32.97;95053.16;4785539;29;20828;-69
2023/09/12 10:28:52;;;;;;;8.38;2.58;;;;;;;27.30;32.77;95048.25;4785237;29;20295;-69
2023/09/12 10:31:19;;;;;;;4.20;2.67;;;;;;;27.37;33.58;95036.97;4785491;29;20189;-69
2023/09/12 10:33:46;;;;;;;7.40;2.80;;;;;;;27.45;32.89;95049.72;4784857;29;20793;-69
2023/09/12 10:36:13;;;;;;;11.35;2.90;;;;;;;27.47;32.65;95046.72;4784879;29;20275;-69
2023/09/12 10:38:44;;;;;;;5.85;2.50;;;;;;;27.49;33.08;95048.00;4784993;29;20722;-69
2023/09/12 10:41:14;;;;;;;5.68;3.03;;;;;;;27.46;32.27;95024.28;4784865;29;20185;-69
2023/09/12 10:43:41;;;;;;;4.70;2.58;;;;;;;27.34;33.39;95032.97;4784661;29;20870;-69
2023/09/12 10:46:07;;;;;;;5.10;2.47;;;;;;;27.35;33.52;95026.47;4784778;29;20657;-69
2023/09/12 10:48:35;;;;;;;14.35;3.70;;;;;;;27.33;33.40;95030.59;4784631;29;20243;-69
2023/09/12 10:51:01;;;;;;;4.47;2.50;;;;;;;27.34;33.89;95016.75;4784395;29;20191;-69
2023/09/12 10:53:30;;;;;;;7.68;2.88;;;;;;;27.49;33.17;95020.16;4784539;29;20246;-69
2023/09/12 10:56:15;;;;;;;7.63;2.65;;;;;;;27.52;32.75;95014.91;4784636;29;20204;-69
2023/09/12 10:59:15;;;;;;;7.38;2.72;;;;;;;27.60;33.90;95024.19;4784820;29;20196;-69
2023/09/12 11:01:45;;;;;;;5.13;2.55;;;;;;;27.52;32.24;95001.38;4784703;29;20641;-69
2023/09/12 11:04:19;;;;;;;6.05;2.58;;;;;;;27.45;32.70;95016.47;4783276;29;20271;-69
2023/09/12 11:06:48;;;;;;;7.05;2.83;;;;;;;27.17;34.00;95002.38;4784726;29;20266;-69
2023/09/12 11:09:14;;;;;;;10.73;2.55;;;;;;;27.20;34.42;95005.25;4784606;29;20204;-69
2023/09/12 11:11:44;;;;;;;9.32;2.63;;;;;;;27.05;32.82;95005.66;4784555;29;20188;-68
2023/09/12 11:14:09;;;;;;;7.00;2.40;;;;;;;27.06;34.05;95006.47;4784623;29;20199;-69
2023/09/12 11:16:36;;;;;;;4.32;2.40;;;;;;;27.08;32.84;94996.91;4784664;29;20267;-69
2023/09/12 11:19:18;;;;;;;8.32;2.35;;;;;;;27.18;33.66;94996.66;4784464;29;20206;-69
2023/09/12 11:21:49;;;;;;;7.32;2.88;;;;;;;27.02;33.96;94985.47;4784661;29;20198;-69
2023/09/12 11:24:16;;;;;;;7.10;2.50;;;;;;;27.21;34.30;95006.06;4784368;29;20195;-69
2023/09/12 11:26:54;;;;;;;5.88;2.72;;;;;;;27.36;32.56;94997.50;4784335;29;20394;-69
2023/09/12 11:29:19;;;;;;;7.50;2.70;;;;;;;27.47;32.76;94998.03;4784227;29;20249;-69